createdAt,value
2023-04-07T00:00:27.083Z,12.93
2023-04-07T00:03:07.437Z,11.00
2023-04-07T00:05:40.169Z,12.03
2023-04-07T00:08:10.824Z,13.83
2023-04-07T00:10:40.651Z,11.50
2023-04-07T00:13:10.514Z,12.90
2023-04-07T00:15:40.360Z,12.67
2023-04-07T00:18:10.290Z,12.77
2023-04-07T00:20:43.190Z,13.00
2023-04-07T00:23:13.059Z,13.23
2023-04-07T00:25:42.887Z,12.60
2023-04-07T00:28:12.850Z,12.57
2023-04-07T00:30:42.668Z,12.00
2023-04-07T00:33:12.554Z,14.60
2023-04-07T00:35:45.043Z,13.47
2023-04-07T00:38:14.934Z,13.60
2023-04-07T00:40:44.757Z,12.53
2023-04-07T00:43:14.629Z,13.53
2023-04-07T00:45:44.510Z,13.17
2023-04-07T00:48:14.358Z,12.87
2023-04-07T00:50:51.308Z,13.37
2023-04-07T00:53:21.338Z,14.17
2023-04-07T00:55:51.473Z,13.53
2023-04-07T00:58:21.417Z,15.30
2023-04-07T01:00:57.055Z,15.97
2023-04-07T01:03:34.929Z,15.03
2023-04-07T01:06:11.125Z,14.60
2023-04-07T01:08:51.177Z,15.63
2023-04-07T01:11:26.920Z,14.83
2023-04-07T01:13:57.601Z,14.57
2023-04-07T01:16:33.159Z,16.77
2023-04-07T01:19:07.867Z,15.17
2023-04-07T01:21:42.472Z,15.63
2023-04-07T01:24:37.670Z,15.50
2023-04-07T01:27:22.079Z,16.33
2023-04-07T01:29:57.293Z,16.10
2023-04-07T01:32:32.076Z,17.17
2023-04-07T01:35:05.135Z,15.70
2023-04-07T01:37:36.509Z,15.60
2023-04-07T01:40:06.792Z,16.03
2023-04-07T01:42:37.698Z,15.57
2023-04-07T01:45:12.843Z,17.97
2023-04-07T01:47:43.091Z,16.87
2023-04-07T01:50:15.321Z,17.57
2023-04-07T01:52:46.138Z,18.03
2023-04-07T01:55:17.495Z,15.33
2023-04-07T01:57:47.319Z,16.03
2023-04-07T02:00:20.482Z,17.27
2023-04-07T02:02:53.348Z,15.50
2023-04-07T02:05:24.903Z,17.83
2023-04-07T02:07:59.104Z,17.93
2023-04-07T02:10:31.599Z,17.77
2023-04-07T02:13:03.292Z,17.80
2023-04-07T02:15:37.150Z,17.30
2023-04-07T02:18:10.843Z,16.70
2023-04-07T02:20:41.068Z,17.77
2023-04-07T02:23:11.357Z,17.87
2023-04-07T02:25:41.256Z,18.47
2023-04-07T02:28:11.163Z,17.43
2023-04-07T02:30:43.631Z,16.33
2023-04-07T02:33:14.238Z,15.87
2023-04-07T02:35:44.090Z,15.70
2023-04-07T02:38:13.957Z,15.97
2023-04-07T02:40:43.798Z,16.23
2023-04-07T02:43:13.721Z,16.27
2023-04-07T02:45:46.240Z,15.20
2023-04-07T02:48:16.114Z,15.83
2023-04-07T02:50:46.045Z,15.40
2023-04-07T02:53:15.852Z,17.07
2023-04-07T02:55:45.758Z,16.83
2023-04-07T02:58:15.727Z,16.30
2023-04-07T03:00:49.094Z,16.73
2023-04-07T03:03:28.301Z,17.17
2023-04-07T03:05:58.158Z,16.00
2023-04-07T03:08:28.012Z,16.27
2023-04-07T03:10:57.854Z,16.83
2023-04-07T03:13:30.067Z,17.37
2023-04-07T03:16:02.769Z,17.20
2023-04-07T03:18:32.684Z,17.27
2023-04-07T03:21:02.521Z,15.33
2023-04-07T03:23:32.376Z,18.90
2023-04-07T03:26:02.193Z,18.50
2023-04-07T03:28:32.232Z,18.63
2023-04-07T03:31:04.823Z,18.27
2023-04-07T03:33:34.712Z,18.17
2023-04-07T03:36:04.655Z,18.97
2023-04-07T03:38:34.654Z,20.03
2023-04-07T03:41:05.250Z,19.33
2023-04-07T03:43:35.049Z,19.43
2023-04-07T03:46:07.667Z,19.63
2023-04-07T03:48:37.839Z,17.20
2023-04-07T03:51:09.289Z,19.03
2023-04-07T03:53:39.091Z,18.10
2023-04-07T03:56:09.356Z,17.87
2023-04-07T03:58:41.808Z,17.50
2023-04-07T04:01:14.365Z,18.97
2023-04-07T04:03:46.342Z,19.73
2023-04-07T04:06:16.406Z,18.60
2023-04-07T04:08:46.392Z,17.50
2023-04-07T04:11:18.004Z,19.70
2023-04-07T04:13:47.816Z,20.17
2023-04-07T04:16:20.235Z,19.30
2023-04-07T04:18:50.105Z,19.10
2023-04-07T04:21:20.780Z,18.03
2023-04-07T04:23:50.787Z,19.83
2023-04-07T04:26:21.263Z,17.67
2023-04-07T04:28:51.228Z,16.90
2023-04-07T04:31:25.216Z,19.50
2023-04-07T04:33:55.394Z,16.17
2023-04-07T04:36:25.354Z,17.10
2023-04-07T04:38:55.190Z,18.20
2023-04-07T04:41:25.020Z,17.03
2023-04-07T04:43:54.879Z,18.33
2023-04-07T04:46:28.187Z,17.03
2023-04-07T04:48:58.305Z,18.10
2023-04-07T04:51:28.288Z,16.00
2023-04-07T04:53:58.110Z,18.13
2023-04-07T04:56:27.995Z,16.33
2023-04-07T04:58:57.845Z,16.43
2023-04-07T05:01:32.116Z,16.90
2023-04-07T05:04:09.573Z,16.50
2023-04-07T05:06:39.872Z,16.63
2023-04-07T05:09:09.850Z,16.00
2023-04-07T05:11:39.741Z,15.53
2023-04-07T05:14:10.118Z,15.43
2023-04-07T05:16:42.829Z,16.07
2023-04-07T05:19:12.696Z,15.70
2023-04-07T05:21:42.600Z,17.23
2023-04-07T05:24:12.465Z,17.17
2023-04-07T05:26:44.552Z,15.87
2023-04-07T05:29:14.411Z,16.33
2023-04-07T05:31:46.867Z,15.07
2023-04-07T05:34:16.804Z,16.47
2023-04-07T05:36:46.693Z,16.40
2023-04-07T05:39:18.171Z,16.50
2023-04-07T05:41:48.219Z,15.63
2023-04-07T05:44:18.180Z,16.47
2023-04-07T05:46:50.782Z,15.77
2023-04-07T05:49:20.867Z,15.60
2023-04-07T05:51:50.903Z,15.63
2023-04-07T05:54:21.235Z,16.10
2023-04-07T05:56:51.115Z,16.20
2023-04-07T05:59:21.688Z,17.13
2023-04-07T06:01:54.782Z,15.73
2023-04-07T06:04:24.698Z,16.03
2023-04-07T06:06:55.591Z,15.87
2023-04-07T06:09:25.721Z,15.20
2023-04-07T06:11:56.956Z,16.17
2023-04-07T06:14:26.897Z,16.70
2023-04-07T06:16:59.574Z,15.43
2023-04-07T06:19:30.439Z,15.17
2023-04-07T06:22:00.325Z,15.13
2023-04-07T06:24:30.190Z,15.20
2023-04-07T06:27:00.225Z,14.50
2023-04-07T06:29:30.188Z,14.47
2023-04-07T06:32:04.311Z,14.70
2023-04-07T06:34:34.170Z,15.70
2023-04-07T06:37:07.543Z,15.33
2023-04-07T06:39:38.659Z,14.53
2023-04-07T06:42:10.367Z,17.23
2023-04-07T06:44:40.301Z,16.77
2023-04-07T06:47:13.297Z,17.30
2023-04-07T06:49:43.309Z,17.03
2023-04-07T06:52:13.233Z,17.17
2023-04-07T06:54:43.588Z,16.37
2023-04-07T06:57:13.470Z,17.47
2023-04-07T06:59:43.352Z,17.37
2023-04-07T07:02:15.983Z,16.43
2023-04-07T07:04:45.938Z,16.13
2023-04-07T07:07:15.897Z,15.03
2023-04-07T07:09:45.995Z,15.10
2023-04-07T07:12:17.409Z,16.20
2023-04-07T07:14:48.325Z,15.50
2023-04-07T07:17:21.051Z,14.80
2023-04-07T07:19:50.923Z,17.23
2023-04-07T07:22:21.029Z,15.87
2023-04-07T07:24:51.487Z,17.43
2023-04-07T07:27:22.159Z,17.40
2023-04-07T07:29:51.997Z,17.90
2023-04-07T07:32:24.430Z,18.90
2023-04-07T07:34:54.320Z,17.20
2023-04-07T07:37:24.210Z,19.00
2023-04-07T07:39:54.137Z,17.37
2023-04-07T07:42:23.948Z,15.97
2023-04-07T07:44:53.982Z,17.83
2023-04-07T07:47:26.640Z,16.90
2023-04-07T07:49:56.800Z,16.57
2023-04-07T07:52:27.343Z,15.90
2023-04-07T07:54:57.132Z,14.60
2023-04-07T07:57:27.022Z,14.97
2023-04-07T07:59:56.850Z,15.07
2023-04-07T08:02:32.389Z,14.93
2023-04-07T08:05:04.115Z,17.73
2023-04-07T08:07:34.043Z,19.83
2023-04-07T08:10:03.928Z,21.67
2023-04-07T08:12:33.788Z,21.90
2023-04-07T08:15:03.772Z,19.17
2023-04-07T08:17:36.457Z,18.73
2023-04-07T08:20:06.928Z,17.50
2023-04-07T08:22:40.900Z,17.43
2023-04-07T08:25:11.468Z,16.90
2023-04-07T08:27:41.622Z,16.47
2023-04-07T08:30:12.043Z,18.13
2023-04-07T08:32:46.378Z,20.57
2023-04-07T08:35:16.426Z,21.10
2023-04-07T08:37:46.619Z,20.70
2023-04-07T08:40:16.624Z,20.57
2023-04-07T08:42:51.731Z,21.60
2023-04-07T08:45:21.740Z,20.47
2023-04-07T08:47:58.287Z,18.13
2023-04-07T08:50:30.763Z,19.73
2023-04-07T08:53:06.922Z,18.27
2023-04-07T08:55:38.855Z,16.73
2023-04-07T08:58:12.569Z,20.67
2023-04-07T09:00:46.027Z,20.63
2023-04-07T09:03:20.596Z,20.70
2023-04-07T09:05:56.575Z,20.53
2023-04-07T09:08:26.506Z,20.73
2023-04-07T09:10:56.834Z,21.47
2023-04-07T09:13:27.844Z,20.00
2023-04-07T09:15:57.844Z,18.43
2023-04-07T09:18:31.504Z,19.10
2023-04-07T09:21:03.051Z,20.03
2023-04-07T09:23:35.039Z,18.33
2023-04-07T09:26:28.492Z,18.83
2023-04-07T09:29:01.623Z,18.70
2023-04-07T09:31:50.524Z,19.13
2023-04-07T09:34:34.145Z,18.33
2023-04-07T09:37:04.534Z,17.40
2023-04-07T09:39:34.597Z,17.97
2023-04-07T09:42:10.145Z,17.60
2023-04-07T09:44:46.698Z,17.50
2023-04-07T09:47:16.796Z,16.17
2023-04-07T09:49:57.356Z,14.33
2023-04-07T09:52:49.561Z,13.80
2023-04-07T09:55:20.746Z,15.37
2023-04-07T09:57:52.472Z,15.33
2023-04-07T10:00:22.632Z,13.87
2023-04-07T10:02:53.709Z,13.40
2023-04-07T10:05:28.444Z,14.40
2023-04-07T10:08:00.363Z,13.37
2023-04-07T10:10:31.010Z,12.00
2023-04-07T10:13:01.566Z,12.70
2023-04-07T10:15:31.466Z,11.77
2023-04-07T10:18:04.410Z,12.27
2023-04-07T10:20:37.375Z,12.50
2023-04-07T10:23:16.628Z,11.87
2023-04-07T10:25:49.168Z,11.97
2023-04-07T10:28:21.481Z,12.10
2023-04-07T10:30:52.298Z,11.57
2023-04-07T10:33:42.099Z,11.53
2023-04-07T10:36:14.554Z,11.37
2023-04-07T10:38:44.606Z,10.80
2023-04-07T10:41:40.561Z,11.43
2023-04-07T10:44:12.331Z,11.50
2023-04-07T10:47:05.887Z,11.90
2023-04-07T10:49:37.049Z,10.52
2023-04-07T10:52:28.050Z,11.10
2023-04-07T10:55:34.728Z,10.63
2023-04-07T10:58:18.275Z,10.80
2023-04-07T11:01:24.628Z,10.00
2023-04-07T11:04:02.967Z,9.90
2023-04-07T11:06:33.054Z,11.00
2023-04-07T11:09:05.760Z,10.17
2023-04-07T11:11:44.167Z,10.20
2023-04-07T11:14:14.084Z,11.05
2023-04-07T11:16:46.176Z,9.75
2023-04-07T11:19:16.186Z,10.43
2023-04-07T11:21:46.465Z,11.03
2023-04-07T11:24:40.746Z,9.57
2023-04-07T11:27:16.058Z,9.93
2023-04-07T11:29:46.258Z,10.20
2023-04-07T11:32:16.827Z,9.40
2023-04-07T11:34:46.973Z,10.40
2023-04-07T11:37:23.556Z,10.23
2023-04-07T11:40:00.382Z,9.50
2023-04-07T11:42:37.236Z,10.13
2023-04-07T11:45:08.488Z,9.57
2023-04-07T11:47:39.207Z,9.65
2023-04-07T11:50:11.705Z,9.85
2023-04-07T11:52:46.767Z,9.30
2023-04-07T11:55:26.910Z,8.93
2023-04-07T11:58:00.440Z,9.43
2023-04-07T12:00:30.305Z,10.30
2023-04-07T12:03:15.147Z,10.10
2023-04-07T12:05:48.639Z,9.70
2023-04-07T12:08:20.651Z,9.67
2023-04-07T12:11:07.098Z,9.00
2023-04-07T12:13:37.069Z,7.57
2023-04-07T12:16:07.389Z,8.05
2023-04-07T12:18:37.372Z,16.03
2023-04-07T12:21:08.078Z,8.27
2023-04-07T12:23:37.920Z,8.40
2023-04-07T12:26:12.056Z,9.30
2023-04-07T12:28:41.955Z,9.35
2023-04-07T12:31:12.635Z,10.03
2023-04-07T12:33:42.480Z,8.37
2023-04-07T12:36:12.347Z,9.05
2023-04-07T12:38:42.646Z,8.50
2023-04-07T12:41:15.230Z,8.70
2023-04-07T12:43:46.819Z,9.13
2023-04-07T12:46:17.120Z,8.55
2023-04-07T12:48:48.094Z,9.38
2023-04-07T12:51:23.032Z,8.73
2023-04-07T12:53:54.402Z,7.43
2023-04-07T12:56:26.854Z,7.53
2023-04-07T12:58:56.771Z,8.48
2023-04-07T13:01:28.186Z,8.30
2023-04-07T13:03:58.236Z,8.02
2023-04-07T13:06:28.189Z,8.67
2023-04-07T13:08:58.306Z,8.67
2023-04-07T13:11:32.710Z,8.57
2023-04-07T13:14:02.571Z,8.23
2023-04-07T13:16:32.537Z,7.47
2023-04-07T13:19:04.322Z,8.07
2023-04-07T13:21:46.076Z,7.70
2023-04-07T13:24:17.530Z,9.23
2023-04-07T13:26:49.922Z,8.57
2023-04-07T13:29:19.741Z,9.00
2023-04-07T13:31:49.933Z,7.55
2023-04-07T13:34:20.045Z,7.35
2023-04-07T13:36:49.875Z,7.72
2023-04-07T13:39:19.661Z,9.07
2023-04-07T13:41:55.174Z,7.90
2023-04-07T13:44:26.675Z,9.05
2023-04-07T13:46:56.922Z,11.20
2023-04-07T13:49:26.896Z,8.98
2023-04-07T13:51:56.744Z,11.77
2023-04-07T13:54:26.755Z,9.45
2023-04-07T13:56:59.731Z,8.38
2023-04-07T13:59:29.585Z,8.82
2023-04-07T14:01:59.694Z,9.38
2023-04-07T14:04:32.841Z,12.18
2023-04-07T14:07:04.943Z,9.95
2023-04-07T14:09:34.741Z,10.85
2023-04-07T14:12:07.662Z,9.20
2023-04-07T14:14:37.848Z,9.80
2023-04-07T14:17:07.714Z,9.07
2023-04-07T14:19:37.632Z,7.82
2023-04-07T14:22:07.861Z,8.00
2023-04-07T14:24:37.991Z,7.57
2023-04-07T14:27:10.841Z,7.40
2023-04-07T14:29:40.837Z,8.88
2023-04-07T14:32:10.660Z,8.63
2023-04-07T14:34:40.702Z,8.07
2023-04-07T14:37:10.590Z,7.70
2023-04-07T14:39:45.927Z,7.70
2023-04-07T14:42:24.291Z,7.05
2023-04-07T14:44:54.195Z,6.80
2023-04-07T14:47:24.086Z,7.85
2023-04-07T14:49:59.109Z,7.57
2023-04-07T14:52:28.992Z,7.05
2023-04-07T14:55:00.268Z,8.25
2023-04-07T14:57:33.059Z,7.57
2023-04-07T15:00:05.910Z,7.65
2023-04-07T15:02:39.642Z,7.20
2023-04-07T15:05:11.344Z,7.50
2023-04-07T15:07:41.211Z,7.65
2023-04-07T15:10:11.937Z,8.45
2023-04-07T15:12:47.273Z,7.82
2023-04-07T15:15:17.792Z,8.43
2023-04-07T15:17:47.714Z,7.03
2023-04-07T15:20:17.626Z,7.53
2023-04-07T15:22:47.466Z,8.30
2023-04-07T15:25:17.314Z,7.60
2023-04-07T15:27:50.091Z,8.52
2023-04-07T15:30:26.698Z,8.18
2023-04-07T15:33:01.070Z,8.52
2023-04-07T15:35:31.035Z,8.65
2023-04-07T15:38:01.039Z,8.15
2023-04-07T15:40:34.178Z,8.38
2023-04-07T15:43:10.587Z,8.27
2023-04-07T15:45:44.760Z,8.02
2023-04-07T15:48:15.626Z,8.75
2023-04-07T15:50:45.537Z,8.23
2023-04-07T15:53:16.004Z,8.25
2023-04-07T15:55:46.588Z,7.90
2023-04-07T15:58:19.298Z,7.68
2023-04-07T16:00:49.276Z,8.15
2023-04-07T16:03:25.865Z,8.65
2023-04-07T16:05:56.222Z,9.35
2023-04-07T16:08:26.078Z,8.63
2023-04-07T16:10:55.983Z,9.88
2023-04-07T16:13:28.484Z,9.10
2023-04-07T16:15:59.689Z,11.02
2023-04-07T16:18:30.355Z,10.93
2023-04-07T16:21:04.208Z,9.60
2023-04-07T16:23:34.534Z,10.85
2023-04-07T16:26:04.667Z,10.27
2023-04-07T16:28:37.850Z,8.77
2023-04-07T16:31:11.776Z,10.23
2023-04-07T16:33:42.197Z,9.07
2023-04-07T16:36:12.187Z,10.60
2023-04-07T16:38:42.249Z,10.38
2023-04-07T16:41:12.215Z,9.57
2023-04-07T16:43:44.774Z,10.35
2023-04-07T16:46:14.745Z,10.15
2023-04-07T16:48:44.694Z,9.93
2023-04-07T16:51:19.461Z,10.35
2023-04-07T16:53:50.140Z,9.55
2023-04-07T16:59:14.366Z,8.83
2023-04-07T17:01:46.141Z,8.33
2023-04-07T17:04:17.247Z,9.20
2023-04-07T17:06:47.390Z,8.50
2023-04-07T17:09:18.770Z,9.52
2023-04-07T17:11:48.812Z,8.63
2023-04-07T17:14:23.714Z,7.90
2023-04-07T17:16:53.903Z,8.97
2023-04-07T17:19:23.831Z,9.37
2023-04-07T17:21:53.951Z,8.87
2023-04-07T17:24:23.998Z,8.70
2023-04-07T17:26:53.950Z,8.60
2023-04-07T17:29:29.263Z,8.40
2023-04-07T17:31:59.409Z,8.80
2023-04-07T17:34:29.334Z,8.93
2023-04-07T17:36:59.267Z,8.17
2023-04-07T17:39:29.378Z,7.47
2023-04-07T17:41:59.278Z,8.57
2023-04-07T17:44:31.769Z,8.47
2023-04-07T17:47:02.768Z,8.20
2023-04-07T17:49:32.638Z,8.20
2023-04-07T17:52:03.045Z,8.33
2023-04-07T17:54:34.161Z,7.60
2023-04-07T17:57:04.118Z,8.50
2023-04-07T17:59:36.814Z,8.50
2023-04-07T18:02:09.284Z,8.20
2023-04-07T18:04:40.610Z,7.53
2023-04-07T18:07:14.437Z,7.57
2023-04-07T18:09:45.191Z,7.87
2023-04-07T18:12:15.245Z,7.60
2023-04-07T18:14:47.668Z,6.87
2023-04-07T18:17:17.998Z,7.37
2023-04-07T18:19:47.878Z,7.40
2023-04-07T18:22:18.219Z,7.13
2023-04-07T18:24:48.238Z,6.63
2023-04-07T18:27:18.073Z,7.50
2023-04-07T18:29:51.274Z,6.70
2023-04-07T18:32:21.292Z,7.93
2023-04-07T18:34:51.431Z,7.10
2023-04-07T18:37:21.458Z,7.83
2023-04-07T18:39:57.127Z,7.93
2023-04-07T18:42:27.307Z,8.50
2023-04-07T18:44:59.964Z,7.07
2023-04-07T18:47:30.366Z,7.40
2023-04-07T18:50:01.024Z,7.30
2023-04-07T18:52:31.169Z,7.57
2023-04-07T18:55:01.091Z,7.30
2023-04-07T18:57:31.451Z,7.33
2023-04-07T19:00:04.372Z,7.67
2023-04-07T19:02:38.955Z,7.70
2023-04-07T19:05:09.181Z,8.30
2023-04-07T19:07:39.212Z,7.00
2023-04-07T19:10:14.449Z,7.23
2023-04-07T19:12:44.281Z,6.97
2023-04-07T19:15:17.531Z,7.70
2023-04-07T19:17:47.440Z,8.10
2023-04-07T19:20:17.350Z,7.30
2023-04-07T19:22:47.206Z,7.80
2023-04-07T19:25:17.288Z,7.63
2023-04-07T19:27:47.310Z,7.30
2023-04-07T19:30:19.880Z,7.13
2023-04-07T19:32:51.205Z,7.13
2023-04-07T19:35:21.824Z,7.27
2023-04-07T19:37:52.634Z,7.27
2023-04-07T19:40:23.671Z,6.93
2023-04-07T19:42:54.941Z,7.10
2023-04-07T19:45:27.424Z,6.53
2023-04-07T19:47:57.493Z,6.70
2023-04-07T19:50:28.518Z,6.03
2023-04-07T19:52:58.322Z,5.97
2023-04-07T19:55:28.124Z,6.40
2023-04-07T19:58:00.539Z,6.47
2023-04-07T20:00:37.712Z,6.40
2023-04-07T20:03:08.320Z,5.77
2023-04-07T20:05:38.862Z,6.13
2023-04-07T20:08:08.737Z,6.83
2023-04-07T20:10:40.176Z,6.20
2023-04-07T20:13:10.580Z,5.93
2023-04-07T20:15:44.275Z,6.40
2023-04-07T20:18:14.145Z,5.80
2023-04-07T20:20:43.963Z,5.90
2023-04-07T20:23:15.161Z,5.90
2023-04-07T20:25:45.514Z,6.07
2023-04-07T20:28:15.500Z,5.50
2023-04-07T20:30:47.981Z,5.50
2023-04-07T20:33:17.843Z,5.83
2023-04-07T20:35:47.709Z,5.03
2023-04-07T20:38:18.938Z,5.20
2023-04-07T20:40:48.757Z,5.43
2023-04-07T20:43:22.086Z,4.93
2023-04-07T20:45:55.099Z,5.00
2023-04-07T20:48:26.183Z,4.87
2023-04-07T20:50:56.085Z,5.47
2023-04-07T20:53:25.957Z,5.60
2023-04-07T20:55:56.343Z,4.97
2023-04-07T20:58:26.194Z,5.00
2023-04-07T21:01:02.269Z,4.47
2023-04-07T21:03:36.109Z,5.30
2023-04-07T21:06:07.352Z,5.43
2023-04-07T21:08:37.187Z,4.73
2023-04-07T21:11:07.086Z,4.70
2023-04-07T21:13:36.980Z,4.47
2023-04-07T21:16:09.765Z,4.50
2023-04-07T21:18:39.652Z,4.57
2023-04-07T21:21:09.495Z,4.20
2023-04-07T21:23:44.626Z,4.30
2023-04-07T21:26:14.508Z,4.30
2023-04-07T21:28:44.472Z,3.80
2023-04-07T21:31:23.786Z,4.07
2023-04-07T21:33:54.243Z,4.30
2023-04-07T21:36:24.184Z,4.00
2023-04-07T21:38:56.686Z,3.97
2023-04-07T21:41:26.583Z,3.80
2023-04-07T21:43:56.760Z,3.80
2023-04-07T21:46:29.391Z,3.90
2023-04-07T21:49:00.160Z,3.90
2023-04-07T21:51:29.992Z,4.10
2023-04-07T21:54:02.420Z,3.73
2023-04-07T21:56:32.217Z,4.40
2023-04-07T21:59:02.081Z,3.90
2023-04-07T22:01:34.808Z,3.90
2023-04-07T22:04:07.845Z,3.87
2023-04-07T22:06:37.760Z,3.90
2023-04-07T22:09:09.178Z,4.20
2023-04-07T22:11:39.062Z,3.93
2023-04-07T22:14:08.897Z,4.93
2023-04-07T22:16:41.485Z,4.30
2023-04-07T22:19:11.328Z,5.10
2023-04-07T22:21:41.637Z,4.43
2023-04-07T22:24:13.748Z,4.60
2023-04-07T22:26:46.575Z,4.50
2023-04-07T22:29:16.344Z,5.43
2023-04-07T22:31:48.817Z,4.80
2023-04-07T22:34:18.629Z,4.87
2023-04-07T22:36:48.477Z,4.77
2023-04-07T22:39:18.265Z,5.17
2023-04-07T22:41:48.064Z,5.07
2023-04-07T22:44:17.949Z,4.77
2023-04-07T22:46:50.529Z,5.00
2023-04-07T22:49:20.369Z,5.17
2023-04-07T22:51:50.881Z,5.20
2023-04-07T22:54:21.519Z,5.20
2023-04-07T22:56:51.365Z,5.80
2023-04-07T22:59:21.240Z,5.40
2023-04-07T23:01:55.676Z,5.67
2023-04-07T23:04:31.307Z,5.77
2023-04-07T23:07:04.214Z,5.73
2023-04-07T23:09:34.069Z,6.17
2023-04-07T23:12:04.429Z,6.13
2023-04-07T23:14:34.370Z,6.47
2023-04-07T23:17:06.853Z,6.40
2023-04-07T23:19:36.730Z,5.80
2023-04-07T23:22:08.893Z,6.40
2023-04-07T23:24:38.711Z,6.30
2023-04-07T23:27:08.563Z,6.87
2023-04-07T23:29:39.132Z,6.73
2023-04-07T23:32:11.762Z,7.53
2023-04-07T23:34:41.667Z,7.37
2023-04-07T23:37:11.598Z,7.97
2023-04-07T23:39:41.424Z,7.63
2023-04-07T23:42:12.413Z,7.87
2023-04-07T23:44:42.317Z,7.80
2023-04-07T23:47:14.784Z,8.23
2023-04-07T23:49:44.757Z,8.43
2023-04-07T23:52:17.018Z,9.00
2023-04-07T23:54:47.176Z,8.87
2023-04-07T23:57:16.997Z,9.10
2023-04-07T23:59:47.048Z,8.83
